Flight Track Log - Related Links

Times and Time Zones

All times are in EDT time to prevent confusion due to time zone crossing. See the UAL4236 flight status page for this flight to view local times or setup timezone preferences in your user account.

Time Position Orientation Groundspeed Altitude Reporting Facility
EDT Latitude Longitude Course Direction KTS MPH feet Rate Location/Type
Sat 10:11:10 AM 29.9594 -95.3414 291° West 159 183 800  Level Houston Center
Sat 10:11:53 AM 29.9278 -95.3622 210° Southwest 208 239 2,100 1,259 Climbing Houston Center
Sat 10:12:31 AM 29.9117 -95.3942 240° Southwest 234 269 2,500 1,672 Climbing Houston Center
Sat 10:12:54 AM 29.9031 -95.4375 257° West 299 344 3,800 2,129 Climbing Houston Center
Sat 10:13:33 AM 29.9119 -95.4786 284° West 280 322 4,700 2,328 Climbing Houston Center
Sat 10:14:00 AM 30.0333 -95.7993 277° West  Level FlightAware
Sat 10:14:01 AM 29.9264 -95.5311 288° West 303 349 6,400  Level Houston Center
Sat 10:14:35 AM 29.9406 -95.5839 287° West 289 333 7,900 2,337 Climbing Houston Center
Sat 10:15:00 AM 30.0431 -95.9165 276° West  Level FlightAware
Sat 10:15:36 AM 29.9642 -95.6681 288° West 280 322 10,100  Level Houston Center
Sat 10:16:00 AM 30.0606 -96.0317 291° West  Level FlightAware
Sat 10:16:38 AM 29.9889 -95.7594 287° West 296 341 11,300  Level Houston Center
Sat 10:17:39 AM 30.0161 -95.8639 287° West 336 387 12,300 1,073 Climbing Houston Center
Sat 10:18:41 AM 30.0456 -95.9717 288° West 350 403 13,500 1,306 Climbing Houston Center
Sat 10:19:43 AM 30.0742 -96.0858 286° West 361 415 15,000 1,403 Climbing Houston Center
Sat 10:20:45 AM 30.0914 -96.1958 280° West 353 406 16,400 1,268 Climbing Houston Center
Sat 10:21:46 AM 30.1081 -96.3075 280° West 354 407 17,600 1,268 Climbing Houston Center
Sat 10:22:48 AM 30.1267 -96.4353 280° West 358 412 19,000 1,161 Climbing Houston Center
Sat 10:23:50 AM 30.1444 -96.5492 280° West 358 412 20,000 1,016 Climbing Houston Center
Sat 10:24:52 AM 30.1628 -96.6664 280° West 364 419 21,100 1,024 Climbing Houston Center
Sat 10:25:53 AM 30.1800 -96.7864 279° West 371 427 22,100 1,024 Climbing Houston Center
Sat 10:26:55 AM 30.1992 -96.9017 281° West 365 420 23,200 1,306 Climbing Houston Center
Sat 10:27:57 AM 30.2192 -97.0414 279° West 369 425 24,800 1,452 Climbing Houston Center
Sat 10:28:59 AM 30.2358 -97.1561 280° West 362 417 26,200 1,415 Climbing Houston Center
Sat 10:30:00 AM 30.2514 -97.2664 279° West 350 403 27,700 1,366 Climbing Houston Center
Sat 10:31:02 AM 30.2667 -97.3711 280° West 333 383 29,000 1,113 Climbing Houston Center
Sat 10:32:04 AM 30.2822 -97.4775 280° West 330 380 30,000 968 Climbing Houston Center
Sat 10:33:06 AM 30.2978 -97.5872 279° West 338 389 31,000 1,024 Climbing Houston Center
Sat 10:34:07 AM 30.3161 -97.6953 281° West 340 391 32,100 1,122 Climbing Houston Center
Sat 10:35:09 AM 30.3369 -97.8031 283° West 338 389 33,300 919 Climbing Houston Center
Sat 10:36:11 AM 30.3586 -97.9094 283° West 336 387 34,000 339 Climbing Houston Center
Sat 10:37:13 AM 30.3797 -98.0203 282° West 342 394 34,000  Level Houston Center
Sat 10:38:14 AM 30.4019 -98.1408 282° West 367 422 34,000  Level Houston Center
Sat 10:39:16 AM 30.4267 -98.2642 283° West 382 440 34,000  Level Houston Center
Sat 10:40:18 AM 30.4544 -98.4094 283° West 389 448 34,000  Level Houston Center
Sat 10:41:19 AM 30.4778 -98.5331 282° West 390 449 34,000  Level Houston Center
Sat 10:42:21 AM 30.5003 -98.6572 282° West 389 448 34,000  Level Houston Center
Sat 10:43:23 AM 30.5239 -98.7822 282° West 394 453 34,000  Level Houston Center
Sat 10:44:25 AM 30.5483 -98.9075 283° West 395 455 34,000  Level Houston Center
Sat 10:45:26 AM 30.5728 -99.0328 283° West 394 453 34,000  Level Houston Center
Sat 10:46:28 AM 30.5961 -99.1550 283° West 395 455 34,000  Level Houston Center
Sat 10:47:30 AM 30.6192 -99.2803 282° West 397 457 34,000  Level Houston Center
Sat 10:48:31 AM 30.6414 -99.4039 282° West 395 455 34,000  Level Houston Center
Sat 10:49:33 AM 30.6678 -99.5481 282° West 386 444 34,000  Level Houston Center
Sat 10:50:35 AM 30.6883 -99.6683 281° West 383 441 34,000  Level Houston Center
Sat 10:51:36 AM 30.7086 -99.7850 281° West 372 428 34,000  Level Houston Center
Sat 10:52:38 AM 30.7300 -99.9047 282° West 383 441 34,000  Level Houston Center
Sat 10:53:40 AM 30.7511 -100.0244 282° West 381 438 34,000  Level Houston Center
Sat 10:54:41 AM 30.7725 -100.1447 282° West 380 437 34,000  Level Houston Center
Sat 10:55:43 AM 30.7986 -100.2892 282° West 378 435 34,000  Level Houston Center
Sat 10:56:45 AM 30.8197 -100.4106 281° West 384 442 34,000  Level Houston Center
Sat 10:57:47 AM 30.8403 -100.5306 281° West 379 436 34,000  Level Houston Center
Sat 10:58:49 AM 30.8628 -100.6533 282° West 382 440 34,000  Level Houston Center
Sat 10:59:50 AM 30.8825 -100.7769 281° West 382 440 34,000  Level Houston Center
Sat 11:00:52 AM 30.9044 -100.9008 282° West 384 442 34,000  Level Houston Center
Sat 11:01:54 AM 30.9300 -101.0475 282° West 384 442 34,000  Level Houston Center
Sat 11:02:56 AM 30.9514 -101.1706 281° West 387 445 34,000  Level Houston Center
Sat 11:03:58 AM 30.9694 -101.2939 280° West 390 449 34,000  Level Houston Center
Sat 11:04:59 AM 30.9908 -101.4189 281° West 392 451 34,000  Level Houston Center
Sat 11:05:24 AM 30.9981 -101.4686 280° West 393 452 34,000  Level Albuquerque Center
Sat 11:06:26 AM 31.0194 -101.5953 281° West 397 457 34,000  Level Albuquerque Center
Sat 11:07:27 AM 31.0439 -101.7478 281° West 399 459 34,000  Level Albuquerque Center
Sat 11:08:29 AM 31.0650 -101.8756 281° West 399 459 34,000  Level Albuquerque Center
Sat 11:09:31 AM 31.0861 -102.0125 280° West 418 481 34,000  Level Albuquerque Center
Sat 11:10:33 AM 31.1064 -102.1397 281° West 406 467 34,000  Level Albuquerque Center
Sat 11:11:35 AM 31.1258 -102.2678 280° West 402 463 34,000  Level Albuquerque Center
Sat 11:12:36 AM 31.1472 -102.3964 281° West 403 464 34,000  Level Albuquerque Center
Sat 11:13:38 AM 31.1672 -102.5244 280° West 402 463 34,000  Level Albuquerque Center
Sat 11:14:40 AM 31.1872 -102.6572 280° West 401 461 34,000  Level Albuquerque Center
Sat 11:15:42 AM 31.2078 -102.7875 280° West 404 465 34,000  Level Albuquerque Center
Sat 11:16:44 AM 31.2272 -102.9156 280° West 403 464 34,000  Level Albuquerque Center
Sat 11:17:45 AM 31.2503 -103.0653 280° West 394 453 34,000  Level Albuquerque Center
Sat 11:18:47 AM 31.2678 -103.1911 279° West 393 452 34,000  Level Albuquerque Center
Sat 11:19:49 AM 31.2881 -103.3164 281° West 391 450 34,000 -48 Level Albuquerque Center
Sat 11:20:51 AM 31.3067 -103.4422 280° West 392 451 33,900  Descending Albuquerque Center
Sat 11:21:53 AM 31.3244 -103.5681 279° West 393 452 34,000 49 Climbing Albuquerque Center
Sat 11:22:54 AM 31.3433 -103.6939 280° West 393 452 34,000  Level Albuquerque Center
Sat 11:23:56 AM 31.3614 -103.8231 279° West 395 455 34,000  Level Albuquerque Center
Sat 11:24:58 AM 31.3839 -103.9744 280° West 394 453 34,000  Level Albuquerque Center
Sat 11:26:00 AM 31.4031 -104.1022 280° West 398 458 34,000  Level Albuquerque Center
Sat 11:27:01 AM 31.4211 -104.2300 279° West 400 460 34,000  Level Albuquerque Center
Sat 11:28:03 AM 31.4411 -104.3614 280° West 405 466 34,000 -290 Level Albuquerque Center
Sat 11:29:05 AM 31.4581 -104.4925 279° West 409 471 33,400 -1,500 Descending Albuquerque Center
Sat 11:30:07 AM 31.4714 -104.6250 277° West 411 473 30,900 -2,293 Descending Albuquerque Center
Sat 11:31:08 AM 31.4847 -104.7608 277° West 416 479 28,700 -2,341 Descending Albuquerque Center
Sat 11:32:10 AM 31.5019 -104.9239 277° West 421 484 26,100 -2,323 Descending Albuquerque Center
Sat 11:33:12 AM 31.5156 -105.0594 277° West 419 482 23,900 -2,177 Descending Albuquerque Center
Sat 11:34:14 AM 31.5294 -105.1908 277° West 418 481 21,600 -2,400 Descending Albuquerque Center
Sat 11:34:52 AM 31.5358 -105.2914 274° West 414 476 19,900 -2,262 Descending Albuquerque Center
Sat 11:35:15 AM 31.5425 -105.3228 284° West 414 476 19,300 -2,118 Descending Albuquerque Center
Sat 11:36:17 AM 31.5539 -105.4514 276° West 402 463 16,900 -2,481 Descending Albuquerque Center
Sat 11:36:59 AM 31.5633 -105.5614 276° West 377 434 15,000 -2,516 Descending Albuquerque Center
Sat 11:37:19 AM 31.5722 -105.5956 287° West 379 436 14,300 -2,066 Descending Albuquerque Center
Sat 11:38:00 AM 31.6000 -105.6769 292° West 386 444 12,900 -2,066 Descending Albuquerque Center
Sat 11:38:20 AM 31.6125 -105.7106 294° West 379 436 12,200 -2,060 Descending Albuquerque Center
Sat 11:39:07 AM 31.6425 -105.8008 291° West 379 436 10,600 -1,839 Descending Albuquerque Center
Sat 11:39:22 AM 31.6522 -105.8242 296° West 377 434 10,300 -600 Descending Albuquerque Center
Sat 11:40:07 AM 31.6814 -105.9058 293° West 349 402 10,000 -484 Descending Albuquerque Center
Sat 11:40:24 AM 31.6886 -105.9261 293° West 330 380 9,800 -1,279 Descending Albuquerque Center
Sat 11:41:08 AM 31.7128 -105.9956 292° West 273 314 8,700 -1,600 Descending Albuquerque Center
Sat 11:42:09 AM 31.7381 -106.0864 288° West 269 310 7,000 -1,595 Descending Albuquerque Center
Sat 11:42:27 AM 31.7425 -106.0972 296° West 272 313 6,600 -1,300 Descending Albuquerque Center
Sat 11:43:09 AM 31.7608 -106.1633 288° West 239 275 5,700 -968 Descending Albuquerque Center
Sat 11:43:29 AM 31.7639 -106.1725 291° West 246 283 5,600 -300 Descending Albuquerque Center

Login

Don't have an account? Register now (free) for customized features, flight alerts, and more!